aviador You're here:

KMAO Decoded Metar

MARION in SC, USA
Report Time2017-06-27 22:35:00
UTC Time2017-06-27 22:36:52
Flight Rules vfr VFR
WindCalm
Visibility9999 m
Phenomena:N/A
Clouds:N/A
Expected CloudBase > 4,000 ft AGL from Temp-Dew spread
CeilingNone
Temp27°C (ISA +12)
Dew Point17°C (54% RH)
Heat Index27.7°C
QNH1016 hPa
Density Alt1,654 ft
Elevation92 ft
Report Wrong Elevation
Raw Report
KMAO 272235Z AUTO 00000KT 7SM CLR 27/17 A3001 RMK AO2=

Extra information for KMAO:More info

Metar Taf Metar & Taf Last 4 Metars F.Rules Stats Wind Profile Meteogram Temp Stats Airport Information Weather charts Add Link Nearby VenuesMetar ALERT Operation Metar Decoded Social comments

AIRNAV info for KMAO